Observation data for Sundown on 11/19/2019      Previous  Date       Current Mesonet Observations  Soil Data  Daily Summary Page  Observations in Plain Language
KSDS 190600Z 09003KT 08/M02 A2999 RMK A01 T00781017  RH  051%=      5-min Rain = 0
KSDS 190605Z 09003KT 07/M02 A2999 RMK A01 T00731019  RH  053%=      5-min Rain = 0
KSDS 190610Z 10003KT 07/M02 A2999 RMK A01 T00721017  RH  053%=      5-min Rain = 0
KSDS 190615Z 09003KT 08/M02 A2999 RMK A01 T00801017  RH  051%=      5-min Rain = 0
KSDS 190620Z 08003KT 07/M02 A2999 RMK A01 T00741019  RH  052%=      5-min Rain = 0
KSDS 190625Z 08003KT 07/M02 A2999 RMK A01 T00651020  RH  055%=      5-min Rain = 0
KSDS 190630Z 07002KT 06/M02 A2999 RMK A01 T00591021  RH  057%=      5-min Rain = 0
KSDS 190635Z 08003KT 06/M02 A2999 RMK A01 T00601018  RH  058%=      5-min Rain = 0
KSDS 190640Z 09004KT 07/M02 A2999 RMK A01 T00681018  RH  055%=      5-min Rain = 0
KSDS 190645Z 10005KT 08/M02 A2999 RMK A01 T00791017  RH  051%=      5-min Rain = 0
KSDS 190650Z 12005KT 10/M02 A30 RMK A01 T00951018  RH  046%=      5-min Rain = 0
KSDS 190655Z 11007KT 10/M02 A30 RMK A01 T00961019  RH  045%=      5-min Rain = 0
KSDS 190700Z 11008KT 09/M02 A2999 RMK A01 T00911019  RH  046%=      5-min Rain = 0
KSDS 190705Z 11009KT 09/M02 A2999 RMK A01 T00881018  RH  047%=      5-min Rain = 0
KSDS 190710Z 10009KT 09/M02 A2999 RMK A01 T00861017  RH  048%=      5-min Rain = 0
KSDS 190715Z 11009KT 08/M02 A2999 RMK A01 T00841017  RH  049%=      5-min Rain = 0
KSDS 190720Z 11009KT 09/M02 A2999 RMK A01 T00861017  RH  049%=      5-min Rain = 0
KSDS 190725Z 12008KT 08/M02 A2999 RMK A01 T00841018  RH  049%=      5-min Rain = 0
KSDS 190730Z 25008KT 07/M02 A30 RMK A01 T00651020  RH  055%=      5-min Rain = 0
KSDS 190735Z 22007KT 08/M01 A30 RMK A01 T00761014  RH  053%=      5-min Rain = 0
KSDS 190740Z 21007KT 09/M02 A30 RMK A01 T00901016  RH  048%=      5-min Rain = 0
KSDS 190745Z 22006KT 08/M02 A30 RMK A01 T00821017  RH  050%=      5-min Rain = 0
KSDS 190750Z 21005KT 08/M02 A30 RMK A01 T00811017  RH  050%=      5-min Rain = 0
KSDS 190755Z 18005KT 09/M02 A2999 RMK A01 T00851017  RH  049%=      5-min Rain = 0
KSDS 190800Z 18004KT 09/M02 A2999 RMK A01 T00911017  RH  047%=      5-min Rain = 0
KSDS 190805Z 25005KT 09/M02 A2999 RMK A01 T00881020  RH  047%=      5-min Rain = 0
KSDS 190810Z 24006KT 08/M02 A30 RMK A01 T00781018  RH  051%=      5-min Rain = 0
KSDS 190815Z 27007KT 07/M02 A30 RMK A01 T00691020  RH  054%=      5-min Rain = 0
KSDS 190820Z 27007KT 06/M02 A30 RMK A01 T00581021  RH  057%=      5-min Rain = 0
KSDS 190825Z 27008KT 05/M02 A30 RMK A01 T00511019  RH  061%=      5-min Rain = 0
KSDS 190830Z 28007KT 05/M02 A30 RMK A01 T00481018  RH  062%=      5-min Rain = 0
KSDS 190835Z 27007KT 04/M02 A30 RMK A01 T00441019  RH  064%=      5-min Rain = 0
KSDS 190840Z 27007KT 04/M02 A30 RMK A01 T00401019  RH  066%=      5-min Rain = 0
KSDS 190845Z 28008KT 04/M02 A30 RMK A01 T00381019  RH  067%=      5-min Rain = 0
KSDS 190850Z 28007KT 04/M02 A30 RMK A01 T00361019  RH  067%=      5-min Rain = 0
KSDS 190855Z 28007KT 04/M02 A30 RMK A01 T00361019  RH  068%=      5-min Rain = 0
KSDS 190900Z 28007KT 03/M02 A30 RMK A01 T00341019  RH  069%=      5-min Rain = 0
KSDS 190905Z 29007KT 03/M02 A30 RMK A01 T00331019  RH  069%=      5-min Rain = 0
KSDS 190910Z 29006KT 03/M02 A2999 RMK A01 T00341019  RH  069%=      5-min Rain = 0
KSDS 190915Z 30006KT 04/M02 A2999 RMK A01 T00361019  RH  068%=      5-min Rain = 0
KSDS 190920Z 30006KT 03/M02 A2999 RMK A01 T00331020  RH  069%=      5-min Rain = 0
KSDS 190925Z 30005KT 03/M02 A2999 RMK A01 T00311020  RH  070%=      5-min Rain = 0
KSDS 190930Z 31006KT 03/M02 A2999 RMK A01 T00301020  RH  070%=      5-min Rain = 0
KSDS 190935Z 31006KT 03/M02 A2999 RMK A01 T00291020  RH  071%=      5-min Rain = 0
KSDS 190940Z 31007KT 03/M02 A2999 RMK A01 T00311019  RH  071%=      5-min Rain = 0
KSDS 190945Z 31005KT 03/M02 A2998 RMK A01 T00331019  RH  070%=      5-min Rain = 0
KSDS 190950Z 31005KT 04/M02 A2998 RMK A01 T00361018  RH  069%=      5-min Rain = 0
KSDS 190955Z 32005KT 04/M02 A2998 RMK A01 T00351019  RH  069%=      5-min Rain = 0
KSDS 191000Z 33007KT 03/M02 A2998 RMK A01 T00311020  RH  070%=      5-min Rain = 0
KSDS 191005Z 33007KT 03/M02 A2998 RMK A01 T00301019  RH  071%=      5-min Rain = 0
KSDS 191010Z 33006KT 03/M02 A2998 RMK A01 T00291019  RH  071%=      5-min Rain = 0
KSDS 191015Z 32004KT 03/M02 A2998 RMK A01 T00321018  RH  071%=      5-min Rain = 0
KSDS 191020Z 30004KT 03/M02 A2998 RMK A01 T00331018  RH  069%=      5-min Rain = 0
KSDS 191025Z 30006KT 02/M02 A2998 RMK A01 T00241021  RH  073%=      5-min Rain = 0
KSDS 191030Z 29006KT 03/M02 A2998 RMK A01 T00251019  RH  073%=      5-min Rain = 0
KSDS 191035Z 30006KT 03/M02 A2998 RMK A01 T00251020  RH  073%=      5-min Rain = 0
KSDS 191040Z 30005KT 03/M02 A2998 RMK A01 T00251020  RH  073%=      5-min Rain = 0
KSDS 191045Z 30005KT 03/M02 A2998 RMK A01 T00251021  RH  073%=      5-min Rain = 0
KSDS 191050Z 29004KT 02/M02 A2998 RMK A01 T00211022  RH  074%=      5-min Rain = 0
KSDS 191055Z 28003KT 02/M02 A2998 RMK A01 T00201021  RH  075%=      5-min Rain = 0
KSDS 191100Z 27002KT 02/M02 A2997 RMK A01 T00221020  RH  074%=      5-min Rain = 0
KSDS 191105Z 27002KT 03/M02 A2997 RMK A01 T00251019  RH  073%=      5-min Rain = 0
KSDS 191110Z 27002KT 03/M02 A2997 RMK A01 T00281019  RH  071%=      5-min Rain = 0
KSDS 191115Z 28003KT 02/M02 A2997 RMK A01 T00241022  RH  073%=      5-min Rain = 0
KSDS 191120Z 27004KT 02/M02 A2997 RMK A01 T00211021  RH  074%=      5-min Rain = 0
KSDS 191125Z 27005KT 03/M02 A2997 RMK A01 T00251019  RH  073%=      5-min Rain = 0
KSDS 191130Z 27005KT 02/M02 A2997 RMK A01 T00241021  RH  073%=      5-min Rain = 0
KSDS 191135Z 27004KT 02/M02 A2997 RMK A01 T00211022  RH  074%=      5-min Rain = 0
KSDS 191140Z 27004KT 02/M02 A2997 RMK A01 T00221022  RH  073%=      5-min Rain = 0
KSDS 191145Z 27004KT 02/M02 A2997 RMK A01 T00231022  RH  073%=      5-min Rain = 0
KSDS 191150Z 27004KT 02/M02 A2996 RMK A01 T00221022  RH  073%=      5-min Rain = 0
KSDS 191155Z 27005KT 02/M02 A2996 RMK A01 T00201023  RH  074%=      5-min Rain = 0
KSDS 191200Z 28007KT 02/M02 A2996 RMK A01 T00181023  RH  074%=      5-min Rain = 0
KSDS 191205Z 28007KT 02/M02 A2996 RMK A01 T00191023  RH  074%=      5-min Rain = 0
KSDS 191210Z 27006KT 02/M02 A2996 RMK A01 T00211023  RH  073%=      5-min Rain = 0
KSDS 191215Z 27006KT 02/M02 A2996 RMK A01 T00211023  RH  074%=      5-min Rain = 0
KSDS 191220Z 26005KT 02/M02 A2996 RMK A01 T00221023  RH  073%=      5-min Rain = 0
KSDS 191225Z 26006KT 02/M02 A2996 RMK A01 T00241023  RH  072%=      5-min Rain = 0
KSDS 191230Z 26006KT 02/M02 A2996 RMK A01 T00241023  RH  072%=      5-min Rain = 0
KSDS 191235Z 25005KT 02/M02 A2996 RMK A01 T00241023  RH  071%=      5-min Rain = 0
KSDS 191240Z 24005KT 03/M02 A2996 RMK A01 T00251023  RH  071%=      5-min Rain = 0
KSDS 191245Z 23004KT 02/M02 A2996 RMK A01 T00241023  RH  071%=      5-min Rain = 0
KSDS 191250Z 23004KT 03/M02 A2996 RMK A01 T00291022  RH  070%=      5-min Rain = 0
KSDS 191255Z 23004KT 03/M02 A2996 RMK A01 T00291022  RH  069%=      5-min Rain = 0
KSDS 191300Z 24004KT 03/M02 A2996 RMK A01 T00301022  RH  069%=      5-min Rain = 0
KSDS 191305Z 23003KT 03/M02 A2996 RMK A01 T00301022  RH  070%=      5-min Rain = 0
KSDS 191310Z 22003KT 03/M02 A2996 RMK A01 T00291023  RH  069%=      5-min Rain = 0
KSDS 191315Z 22003KT 03/M02 A2996 RMK A01 T00301022  RH  069%=      5-min Rain = 0
KSDS 191320Z 23003KT 03/M02 A2996 RMK A01 T00301023  RH  068%=      5-min Rain = 0
KSDS 191325Z 23003KT 03/M03 A2996 RMK A01 T00251025  RH  070%=      5-min Rain = 0
KSDS 191330Z 24003KT 02/M02 A2996 RMK A01 T00221024  RH  072%=      5-min Rain = 0
KSDS 191335Z 24003KT 02/M03 A2996 RMK A01 T00211025  RH  072%=      5-min Rain = 0
KSDS 191340Z 24003KT 02/M02 A2996 RMK A01 T00211024  RH  072%=      5-min Rain = 0
KSDS 191345Z 20003KT 03/M02 A2996 RMK A01 T00251023  RH  071%=      5-min Rain = 0
KSDS 191350Z 22003KT 03/M02 A2996 RMK A01 T00301022  RH  069%=      5-min Rain = 0
KSDS 191355Z 24003KT 03/M02 A2996 RMK A01 T00271023  RH  070%=      5-min Rain = 0
KSDS 191400Z 22003KT 03/M02 A2996 RMK A01 T00301019  RH  071%=      5-min Rain = 0
KSDS 191405Z 22004KT 04/M02 A2996 RMK A01 T00391015  RH  068%=      5-min Rain = 0
KSDS 191410Z 26007G12KT 04/M01 A2997 RMK A01 T00401014  RH  068%=      5-min Rain = 0
KSDS 191415Z 26007KT 05/M01 A2997 RMK A01 T00481009  RH  067%=      5-min Rain = 0
KSDS 191420Z 27005KT 06/M00 A2997 RMK A01 T00561004  RH  066%=      5-min Rain = 0
KSDS 191425Z 24004KT 07/M00 A2997 RMK A01 T00651001  RH  063%=      5-min Rain = 0
KSDS 191430Z 21003KT 08/00 A2997 RMK A01 T00810001  RH  058%=      5-min Rain = 0
KSDS 191435Z 20002KT 10/00 A2997 RMK A01 T00960004  RH  053%=      5-min Rain = 0
KSDS 191440Z 18003KT 11/00 A2997 RMK A01 T01120003  RH  047%=      5-min Rain = 0
KSDS 191445Z 18003KT 12/00 A2997 RMK A01 T01230002  RH  044%=      5-min Rain = 0
KSDS 191450Z 17003KT 14/00 A2997 RMK A01 T01360001  RH  040%=      5-min Rain = 0
KSDS 191455Z 17005KT 14/M00 A2997 RMK A01 T01441002  RH  037%=      5-min Rain = 0
KSDS 191500Z 17005KT 15/M00 A2997 RMK A01 T01481003  RH  036%=      5-min Rain = 0
KSDS 191505Z 17006KT 15/M00 A2997 RMK A01 T01531003  RH  035%=      5-min Rain = 0
KSDS 191510Z 17006KT 16/M00 A2997 RMK A01 T01601003  RH  033%=      5-min Rain = 0
KSDS 191515Z 17006KT 16/M00 A2997 RMK A01 T01631004  RH  032%=      5-min Rain = 0
KSDS 191520Z 17007KT 17/M01 A2997 RMK A01 T01711005  RH  030%=      5-min Rain = 0
KSDS 191525Z 17008KT 18/M01 A2997 RMK A01 T01761010  RH  028%=      5-min Rain = 0
KSDS 191530Z 18008KT 18/M01 A2997 RMK A01 T01781010  RH  028%=      5-min Rain = 0
KSDS 191535Z 18010KT 18/M01 A2997 RMK A01 T01801013  RH  027%=      5-min Rain = 0
KSDS 191540Z 17010KT 18/M01 A2997 RMK A01 T01821014  RH  027%=      5-min Rain = 0
KSDS 191545Z 17011KT 18/M01 A2997 RMK A01 T01811013  RH  027%=      5-min Rain = 0
KSDS 191550Z 17011KT 18/M01 A2997 RMK A01 T01831013  RH  027%=      5-min Rain = 0
KSDS 191555Z 17012KT 18/M01 A2997 RMK A01 T01831013  RH  027%=      5-min Rain = 0
KSDS 191600Z 17010KT 19/M01 A2997 RMK A01 T01851011  RH  027%=      5-min Rain = 0
KSDS 191605Z 17011KT 19/M01 A2997 RMK A01 T01851010  RH  027%=      5-min Rain = 0
KSDS 191610Z 18011KT 19/M01 A2998 RMK A01 T01861009  RH  027%=      5-min Rain = 0
KSDS 191615Z 18012KT 19/M01 A2998 RMK A01 T01891012  RH  026%=      5-min Rain = 0
KSDS 191620Z 18011KT 19/M01 A2998 RMK A01 T01891012  RH  026%=      5-min Rain = 0
KSDS 191625Z 17012KT 19/M01 A2998 RMK A01 T01911009  RH  026%=      5-min Rain = 0
KSDS 191630Z 18011KT 19/M01 A2997 RMK A01 T01911008  RH  026%=      5-min Rain = 0
KSDS 191635Z 17012KT 19/M01 A2997 RMK A01 T01871010  RH  027%=      5-min Rain = 0
KSDS 191640Z 17011KT 19/M01 A2997 RMK A01 T01861008  RH  027%=      5-min Rain = 0
KSDS 191645Z 17011KT 19/M01 A2997 RMK A01 T01911011  RH  026%=      5-min Rain = 0
KSDS 191650Z 18011KT 19/M01 A2997 RMK A01 T01911010  RH  026%=      5-min Rain = 0
KSDS 191655Z 17010KT 20/M01 A2997 RMK A01 T01951006  RH  026%=      5-min Rain = 0
KSDS 191700Z 17011KT 20/M01 A2996 RMK A01 T02031007  RH  025%=      5-min Rain = 0
KSDS 191705Z 18011KT 21/M01 A2996 RMK A01 T02051010  RH  024%=      5-min Rain = 0
KSDS 191710Z 18012KT 21/M01 A2996 RMK A01 T02071014  RH  023%=      5-min Rain = 0
KSDS 191715Z 19013G19KT 21/M02 A2996 RMK A01 T02141017  RH  021%=      5-min Rain = 0
KSDS 191720Z 20015G20KT 21/M02 A2996 RMK A01 T02111020  RH  021%=      5-min Rain = 0
KSDS 191725Z 19015G20KT 21/M02 A2996 RMK A01 T02111022  RH  021%=      5-min Rain = 0
KSDS 191730Z 20016KT 21/M02 A2996 RMK A01 T02111021  RH  021%=      5-min Rain = 0
KSDS 191735Z 19014KT 22/M02 A2995 RMK A01 T02151020  RH  021%=      5-min Rain = 0
KSDS 191740Z 19014KT 22/M02 A2995 RMK A01 T02191022  RH  020%=      5-min Rain = 0
KSDS 191745Z 19014G19KT 22/M02 A2995 RMK A01 T02201022  RH  020%=      5-min Rain = 0
KSDS 191750Z 20015G20KT 23/M02 A2995 RMK A01 T02251023  RH  019%=      5-min Rain = 0
KSDS 191755Z 19014G19KT 23/M02 A2994 RMK A01 T02281023  RH  019%=      5-min Rain = 0
KSDS 191800Z 20015G20KT 23/M03 A2994 RMK A01 T02271026  RH  018%=      5-min Rain = 0
KSDS 191805Z 20014KT 23/M03 A2994 RMK A01 T02311027  RH  018%=      5-min Rain = 0
KSDS 191810Z 19015G20KT 23/M03 A2993 RMK A01 T02341027  RH  018%=      5-min Rain = 0
KSDS 191815Z 20016G21KT 23/M03 A2993 RMK A01 T02331030  RH  017%=      5-min Rain = 0
KSDS 191820Z 20016KT 23/M03 A2992 RMK A01 T02341032  RH  017%=      5-min Rain = 0
KSDS 191825Z 19016G21KT 24/M03 A2992 RMK A01 T02351031  RH  017%=      5-min Rain = 0
KSDS 191830Z 19015G20KT 23/M03 A2992 RMK A01 T02341031  RH  017%=      5-min Rain = 0
KSDS 191835Z 19018G24KT 24/M04 A2992 RMK A01 T02361036  RH  016%=      5-min Rain = 0
KSDS 191840Z 19017G22KT 24/M03 A2992 RMK A01 T02351034  RH  016%=      5-min Rain = 0
KSDS 191845Z 19018KT 24/M04 A2992 RMK A01 T02361035  RH  016%=      5-min Rain = 0
KSDS 191850Z 19017G24KT 23/M04 A2991 RMK A01 T02341036  RH  016%=      5-min Rain = 0
KSDS 191855Z 19015G21KT 24/M03 A2991 RMK A01 T02431033  RH  016%=      5-min Rain = 0
KSDS 191900Z 19015G22KT 25/M03 A299 RMK A01 T02451032  RH  016%=      5-min Rain = 0
KSDS 191905Z 19015G22KT 25/M03 A299 RMK A01 T02471031  RH  016%=      5-min Rain = 0
KSDS 191910Z 20014G22KT 25/M03 A299 RMK A01 T02511031  RH  015%=      5-min Rain = 0
KSDS 191915Z 21016G22KT 25/M03 A299 RMK A01 T02471034  RH  015%=      5-min Rain = 0
KSDS 191920Z 21015G21KT 25/M03 A2989 RMK A01 T02481032  RH  015%=      5-min Rain = 0
KSDS 191925Z 20018KT 25/M03 A2989 RMK A01 T02481034  RH  015%=      5-min Rain = 0
KSDS 191930Z 19015KT 25/M03 A2988 RMK A01 T02471033  RH  015%=      5-min Rain = 0
KSDS 191935Z 20015G21KT 25/M03 A2988 RMK A01 T02471034  RH  015%=      5-min Rain = 0
KSDS 191940Z 19014G20KT 25/M04 A2988 RMK A01 T02461035  RH  015%=      5-min Rain = 0
KSDS 191945Z 19014G19KT 24/M04 A2987 RMK A01 T02391036  RH  016%=      5-min Rain = 0
KSDS 191950Z 19013KT 24/M04 A2987 RMK A01 T02401037  RH  016%=      5-min Rain = 0
KSDS 191955Z 19014G19KT 25/M04 A2987 RMK A01 T02451039  RH  015%=      5-min Rain = 0
KSDS 192000Z 20014KT 25/M04 A2986 RMK A01 T02451041  RH  015%=      5-min Rain = 0
KSDS 192005Z 19013G18KT 24/M04 A2986 RMK A01 T02441042  RH  015%=      5-min Rain = 0
KSDS 192010Z 19013G18KT 25/M04 A2986 RMK A01 T02501043  RH  014%=      5-min Rain = 0
KSDS 192015Z 18014G24KT 25/M05 A2985 RMK A01 T02541046  RH  013%=      5-min Rain = 0
KSDS 192020Z 19014G20KT 25/M05 A2985 RMK A01 T02491048  RH  014%=      5-min Rain = 0
KSDS 192025Z 20014G19KT 25/M05 A2985 RMK A01 T02501047  RH  014%=      5-min Rain = 0
KSDS 192030Z 20012G17KT 26/M05 A2985 RMK A01 T02591045  RH  013%=      5-min Rain = 0
KSDS 192035Z 20012G17KT 27/M05 A2984 RMK A01 T02651045  RH  013%=      5-min Rain = 0
KSDS 192040Z 20012G18KT 26/M05 A2984 RMK A01 T02591046  RH  013%=      5-min Rain = 0
KSDS 192045Z 20013G20KT 26/M04 A2984 RMK A01 T02591044  RH  013%=      5-min Rain = 0
KSDS 192050Z 20014KT 25/M05 A2984 RMK A01 T02511046  RH  014%=      5-min Rain = 0
KSDS 192055Z 20013KT 25/M05 A2984 RMK A01 T02501045  RH  014%=      5-min Rain = 0
KSDS 192100Z 19013G18KT 26/M04 A2984 RMK A01 T02571044  RH  013%=      5-min Rain = 0
KSDS 192105Z 19014KT 26/M04 A2984 RMK A01 T02591044  RH  013%=      5-min Rain = 0
KSDS 192110Z 20013KT 26/M04 A2984 RMK A01 T02571043  RH  014%=      5-min Rain = 0
KSDS 192115Z 20011G16KT 26/M04 A2984 RMK A01 T02601044  RH  013%=      5-min Rain = 0
KSDS 192120Z 20013G20KT 26/M04 A2984 RMK A01 T02601043  RH  013%=      5-min Rain = 0
KSDS 192125Z 20013KT 26/M05 A2983 RMK A01 T02561045  RH  013%=      5-min Rain = 0
KSDS 192130Z 20012G18KT 25/M04 A2983 RMK A01 T02541043  RH  014%=      5-min Rain = 0
KSDS 192135Z 20011G16KT 25/M04 A2983 RMK A01 T02511042  RH  014%=      5-min Rain = 0
KSDS 192140Z 19011KT 25/M04 A2983 RMK A01 T02531039  RH  014%=      5-min Rain = 0
KSDS 192145Z 19011G17KT 25/M04 A2983 RMK A01 T02491040  RH  015%=      5-min Rain = 0
KSDS 192150Z 18013G18KT 25/M04 A2983 RMK A01 T02491040  RH  015%=      5-min Rain = 0
KSDS 192155Z 19012G17KT 25/M04 A2983 RMK A01 T02481040  RH  015%=      5-min Rain = 0
KSDS 192200Z 19013KT 25/M04 A2983 RMK A01 T02521041  RH  014%=      5-min Rain = 0
KSDS 192205Z 19014KT 26/M04 A2983 RMK A01 T02551041  RH  014%=      5-min Rain = 0
KSDS 192210Z 18015KT 25/M04 A2983 RMK A01 T02521038  RH  014%=      5-min Rain = 0
KSDS 192215Z 18017G22KT 25/M04 A2983 RMK A01 T02491037  RH  015%=      5-min Rain = 0
KSDS 192220Z 18014G21KT 25/M04 A2983 RMK A01 T02471036  RH  015%=      5-min Rain = 0
KSDS 192225Z 19017KT 24/M04 A2983 RMK A01 T02441037  RH  015%=      5-min Rain = 0
KSDS 192230Z 18014KT 24/M04 A2983 RMK A01 T02421036  RH  016%=      5-min Rain = 0
KSDS 192235Z 18013G18KT 24/M04 A2983 RMK A01 T02401036  RH  016%=      5-min Rain = 0
KSDS 192240Z 18015KT 23/M04 A2983 RMK A01 T02331038  RH  016%=      5-min Rain = 0
KSDS 192245Z 19012KT 23/M04 A2983 RMK A01 T02301037  RH  017%=      5-min Rain = 0
KSDS 192250Z 19011KT 22/M04 A2983 RMK A01 T02241036  RH  017%=      5-min Rain = 0
KSDS 192255Z 18009KT 22/M04 A2983 RMK A01 T02181035  RH  018%=      5-min Rain = 0
KSDS 192300Z 18009KT 21/M03 A2983 RMK A01 T02131034  RH  019%=      5-min Rain = 0
KSDS 192305Z 18009KT 21/M03 A2983 RMK A01 T02081033  RH  020%=      5-min Rain = 0
KSDS 192310Z 18008KT 20/M03 A2982 RMK A01 T02041032  RH  020%=      5-min Rain = 0
KSDS 192315Z 17007KT 20/M03 A2982 RMK A01 T02031031  RH  021%=      5-min Rain = 0
KSDS 192320Z 17007KT 20/M03 A2983 RMK A01 T01971031  RH  021%=      5-min Rain = 0
KSDS 192325Z 17007KT 19/M03 A2983 RMK A01 T01891030  RH  022%=      5-min Rain = 0
KSDS 192330Z 17008KT 18/M03 A2983 RMK A01 T01821030  RH  023%=      5-min Rain = 0
KSDS 192335Z 18009KT 18/M03 A2983 RMK A01 T01751030  RH  025%=      5-min Rain = 0
KSDS 192340Z 17008KT 17/M03 A2983 RMK A01 T01691030  RH  026%=      5-min Rain = 0
KSDS 192345Z 17009KT 16/M03 A2983 RMK A01 T01621029  RH  027%=      5-min Rain = 0
KSDS 192350Z 17009KT 16/M03 A2983 RMK A01 T01581029  RH  028%=      5-min Rain = 0
KSDS 192355Z 18010KT 16/M03 A2983 RMK A01 T01571028  RH  028%=      5-min Rain = 0
KSDS 200000Z 18009KT 16/M03 A2983 RMK A01 T01591027  RH  028%=      5-min Rain = 0
KSDS 200005Z 18008KT 16/M03 A2983 RMK A01 T01591027  RH  028%=      5-min Rain = 0
KSDS 200010Z 18008KT 15/M03 A2983 RMK A01 T01531028  RH  029%=      5-min Rain = 0
KSDS 200015Z 17008KT 15/M03 A2983 RMK A01 T01451029  RH  030%=      5-min Rain = 0
KSDS 200020Z 17008KT 14/M03 A2982 RMK A01 T01381029  RH  032%=      5-min Rain = 0
KSDS 200025Z 17009KT 14/M03 A2982 RMK A01 T01351027  RH  033%=      5-min Rain = 0
KSDS 200030Z 17008KT 14/M03 A2982 RMK A01 T01351027  RH  033%=      5-min Rain = 0
KSDS 200035Z 17008KT 13/M03 A2982 RMK A01 T01341026  RH  033%=      5-min Rain = 0
KSDS 200040Z 18009KT 13/M03 A2983 RMK A01 T01291027  RH  034%=      5-min Rain = 0
KSDS 200045Z 18009KT 13/M03 A2983 RMK A01 T01281025  RH  035%=      5-min Rain = 0
KSDS 200050Z 18009KT 14/M02 A2983 RMK A01 T01411022  RH  033%=      5-min Rain = 0
KSDS 200055Z 17009KT 14/M02 A2983 RMK A01 T01401023  RH  032%=      5-min Rain = 0
KSDS 200100Z 17009KT 13/M02 A2983 RMK A01 T01341024  RH  034%=      5-min Rain = 0
KSDS 200105Z 17008KT 13/M02 A2984 RMK A01 T01281024  RH  035%=      5-min Rain = 0
KSDS 200110Z 18009KT 13/M02 A2983 RMK A01 T01261023  RH  035%=      5-min Rain = 0
KSDS 200115Z 18008KT 13/M02 A2984 RMK A01 T01281022  RH  035%=      5-min Rain = 0
KSDS 200120Z 19009KT 13/M02 A2984 RMK A01 T01331021  RH  034%=      5-min Rain = 0
KSDS 200125Z 19008KT 14/M02 A2984 RMK A01 T01351021  RH  034%=      5-min Rain = 0
KSDS 200130Z 19008KT 14/M02 A2984 RMK A01 T01381021  RH  034%=      5-min Rain = 0
KSDS 200135Z 18008KT 14/M02 A2984 RMK A01 T01371021  RH  034%=      5-min Rain = 0
KSDS 200140Z 19008KT 14/M02 A2984 RMK A01 T01381020  RH  034%=      5-min Rain = 0
KSDS 200145Z 18008KT 14/M02 A2984 RMK A01 T01391019  RH  034%=      5-min Rain = 0
KSDS 200150Z 18008KT 14/M02 A2984 RMK A01 T01381019  RH  034%=      5-min Rain = 0
KSDS 200155Z 18008KT 14/M02 A2984 RMK A01 T01371018  RH  034%=      5-min Rain = 0
KSDS 200200Z 18008KT 14/M02 A2984 RMK A01 T01371018  RH  034%=      5-min Rain = 0
KSDS 200205Z 18008KT 14/M02 A2984 RMK A01 T01381018  RH  034%=      5-min Rain = 0
KSDS 200210Z 18008KT 14/M02 A2984 RMK A01 T01381018  RH  034%=      5-min Rain = 0
KSDS 200215Z 18007KT 13/M02 A2984 RMK A01 T01341018  RH  035%=      5-min Rain = 0
KSDS 200220Z 17007KT 13/M02 A2984 RMK A01 T01291018  RH  036%=      5-min Rain = 0
KSDS 200225Z 18007KT 13/M02 A2984 RMK A01 T01261018  RH  037%=      5-min Rain = 0
KSDS 200230Z 18008KT 12/M02 A2984 RMK A01 T01241018  RH  037%=      5-min Rain = 0
KSDS 200235Z 18008KT 13/M02 A2984 RMK A01 T01251018  RH  037%=      5-min Rain = 0
KSDS 200240Z 18008KT 13/M02 A2984 RMK A01 T01261017  RH  038%=      5-min Rain = 0
KSDS 200245Z 17008KT 12/M02 A2984 RMK A01 T01221016  RH  039%=      5-min Rain = 0
KSDS 200250Z 17009KT 12/M02 A2984 RMK A01 T01191015  RH  040%=      5-min Rain = 0
KSDS 200255Z 17010KT 12/M01 A2983 RMK A01 T01221014  RH  039%=      5-min Rain = 0
KSDS 200300Z 18010KT 13/M01 A2984 RMK A01 T01251014  RH  039%=      5-min Rain = 0
KSDS 200305Z 18010KT 13/M01 A2984 RMK A01 T01281014  RH  038%=      5-min Rain = 0
KSDS 200310Z 18010KT 13/M02 A2984 RMK A01 T01311015  RH  037%=      5-min Rain = 0
KSDS 200315Z 18010KT 13/M02 A2984 RMK A01 T01311016  RH  036%=      5-min Rain = 0
KSDS 200320Z 18010KT 14/M02 A2984 RMK A01 T01351015  RH  036%=      5-min Rain = 0
KSDS 200325Z 19010KT 14/M02 A2984 RMK A01 T01391015  RH  035%=      5-min Rain = 0
KSDS 200330Z 19011KT 14/M02 A2984 RMK A01 T01421015  RH  034%=      5-min Rain = 0
KSDS 200335Z 19012KT 15/M02 A2984 RMK A01 T01511015  RH  032%=      5-min Rain = 0
KSDS 200340Z 19012KT 16/M02 A2984 RMK A01 T01561016  RH  031%=      5-min Rain = 0
KSDS 200345Z 19012KT 16/M02 A2984 RMK A01 T01581016  RH  031%=      5-min Rain = 0
KSDS 200350Z 19012KT 16/M01 A2984 RMK A01 T01591013  RH  031%=      5-min Rain = 0
KSDS 200355Z 19012KT 16/M01 A2984 RMK A01 T01571010  RH  032%=      5-min Rain = 0
KSDS 200400Z 19012KT 16/M01 A2984 RMK A01 T01561011  RH  032%=      5-min Rain = 0
KSDS 200405Z 19012KT 16/M01 A2984 RMK A01 T01551012  RH  032%=      5-min Rain = 0
KSDS 200410Z 19013KT 16/M01 A2984 RMK A01 T01561005  RH  034%=      5-min Rain = 0
KSDS 200415Z 19013KT 16/00 A2984 RMK A01 T01580002  RH  035%=      5-min Rain = 0
KSDS 200420Z 19012G17KT 16/01 A2984 RMK A01 T01580007  RH  036%=      5-min Rain = 0
KSDS 200425Z 19013KT 16/01 A2984 RMK A01 T01570010  RH  037%=      5-min Rain = 0
KSDS 200430Z 19012KT 16/01 A2984 RMK A01 T01550009  RH  037%=      5-min Rain = 0
KSDS 200435Z 19011KT 15/01 A2984 RMK A01 T01530008  RH  038%=      5-min Rain = 0
KSDS 200440Z 19011KT 15/01 A2984 RMK A01 T01510008  RH  038%=      5-min Rain = 0
KSDS 200445Z 19012KT 15/01 A2984 RMK A01 T01510008  RH  038%=      5-min Rain = 0
KSDS 200450Z 19012KT 15/01 A2985 RMK A01 T01520009  RH  038%=      5-min Rain = 0
KSDS 200455Z 19012KT 15/01 A2985 RMK A01 T01510009  RH  039%=      5-min Rain = 0
KSDS 200500Z 19012KT 15/01 A2985 RMK A01 T01510009  RH  039%=      5-min Rain = 0
KSDS 200505Z 19012KT 15/01 A2984 RMK A01 T01500009  RH  039%=      5-min Rain = 0
KSDS 200510Z 19011KT 15/01 A2984 RMK A01 T01490010  RH  039%=      5-min Rain = 0
KSDS 200515Z 19010G15KT 15/01 A2984 RMK A01 T01470010  RH  040%=      5-min Rain = 0
KSDS 200520Z 19012KT 15/01 A2984 RMK A01 T01480010  RH  040%=      5-min Rain = 0
KSDS 200525Z 19011KT 15/01 A2984 RMK A01 T01470010  RH  040%=      5-min Rain = 0
KSDS 200530Z 19011KT 15/01 A2984 RMK A01 T01460011  RH  040%=      5-min Rain = 0
KSDS 200535Z 19012KT 15/01 A2984 RMK A01 T01450014  RH  041%=      5-min Rain = 0
KSDS 200540Z 19012G18KT 15/02 A2984 RMK A01 T01470017  RH  042%=      5-min Rain = 0
KSDS 200545Z 20011KT 15/02 A2984 RMK A01 T01480021  RH  043%=      5-min Rain = 0
KSDS 200550Z 20012KT 15/03 A2984 RMK A01 T01500025  RH  044%=      5-min Rain = 0
KSDS 200555Z 20013G18KT 15/03 A2984 RMK A01 T01520029  RH  044%=      5-min Rain = 0

Page generated in 0.0162 seconds.